Time;durP1;ratioP1;P1;durP2;ratioP2;P2;SDS_P1;SDS_P2;PMS_P1;PMS_P2;Temp;Humidity;BMP_temperature;BMP_pressure;BME280_temperature;BME280_humidity;BME280_pressure;Samples;Min_cycle;Max_cycle;Signal;HPM_P1;HPM_P2
2023/07/25 04:07:57;;;;;;;11.40;9.90;;;;;;;18.24;100.00;97715.88;103273;1288;604887;-78
2023/07/25 04:10:24;;;;;;;11.20;9.80;;;;;;;19.54;100.00;97723.02;104763;1271;97996;-80
2023/07/25 04:12:50;;;;;;;11.90;8.80;;;;;;;20.07;100.00;97727.96;104911;1266;59353;-78
2023/07/25 04:15:17;;;;;;;11.90;9.30;;;;;;;20.63;100.00;97729.77;104899;1268;59388;-79
2023/07/25 04:17:43;;;;;;;11.40;8.40;;;;;;;21.38;100.00;97733.20;104868;1265;59352;-78
2023/07/25 04:20:10;;;;;;;10.60;8.00;;;;;;;22.08;100.00;97732.44;104921;1268;64237;-78
2023/07/25 04:22:38;;;;;;;11.90;8.80;;;;;;;22.73;100.00;97727.52;104903;1266;59388;-78
2023/07/25 04:25:05;;;;;;;10.60;8.60;;;;;;;23.31;100.00;97729.09;104884;1268;59379;-79
2023/07/25 04:27:32;;;;;;;9.60;7.60;;;;;;;23.84;100.00;97728.95;104868;1271;63384;-79
2023/07/25 04:29:58;;;;;;;8.40;7.60;;;;;;;24.31;100.00;97724.23;104643;1272;60696;-78
2023/07/25 04:32:25;;;;;;;8.30;7.50;;;;;;;24.57;100.00;97726.13;104879;1270;64652;-78
2023/07/25 04:34:51;;;;;;;12.50;9.20;;;;;;;24.89;100.00;97725.39;104904;1268;59567;-79
2023/07/25 04:37:18;;;;;;;10.00;8.40;;;;;;;25.21;100.00;97722.51;104952;1269;59651;-79
2023/07/25 04:39:44;;;;;;;9.90;8.10;;;;;;;25.55;100.00;97727.20;104928;1270;59664;-79
2023/07/25 04:42:10;;;;;;;8.00;7.20;;;;;;;25.85;100.00;97736.92;105437;1260;59779;-79
2023/07/25 04:44:37;;;;;;;10.00;7.50;;;;;;;26.01;100.00;97738.96;105431;1257;59665;-79
2023/07/25 04:47:04;;;;;;;8.10;6.90;;;;;;;26.29;100.00;97736.34;105397;1260;59615;-78
2023/07/25 04:49:30;;;;;;;11.40;7.40;;;;;;;26.59;100.00;97739.19;105454;1260;59675;-79
2023/07/25 04:51:57;;;;;;;8.30;7.20;;;;;;;26.95;100.00;97733.86;105433;1260;59560;-79
2023/07/25 04:54:23;;;;;;;10.50;8.10;;;;;;;27.26;100.00;97732.31;105438;1259;59644;-79
2023/07/25 04:56:50;;;;;;;8.10;7.40;;;;;;;27.48;100.00;97727.41;105404;1260;59590;-79
2023/07/25 04:59:16;;;;;;;8.20;7.40;;;;;;;27.65;100.00;97722.98;105436;1261;59941;-78
2023/07/25 05:01:43;;;;;;;8.40;7.50;;;;;;;27.84;100.00;97728.36;105075;1266;60914;-79
2023/07/25 05:04:09;;;;;;;8.10;6.20;;;;;;;27.95;100.00;97730.33;105430;1260;59664;-78
2023/07/25 05:06:36;;;;;;;8.30;7.40;;;;;;;28.04;100.00;97724.64;105418;1260;59715;-78
2023/07/25 05:09:03;;;;;;;7.70;6.60;;;;;;;28.16;100.00;97725.13;105359;1260;62823;-79
2023/07/25 05:11:29;;;;;;;8.10;7.30;;;;;;;28.30;100.00;97716.71;105372;1261;59638;-79
2023/07/25 05:13:55;;;;;;;7.00;6.40;;;;;;;28.39;100.00;97713.41;105390;1261;59737;-79
2023/07/25 05:16:22;;;;;;;7.50;6.70;;;;;;;28.56;100.00;97715.95;105412;1261;59791;-78
2023/07/25 05:18:49;;;;;;;8.00;6.20;;;;;;;28.69;100.00;97717.86;105626;1261;60885;-78
2023/07/25 05:21:15;;;;;;;7.00;6.30;;;;;;;28.79;100.00;97716.84;105732;1261;63538;-77
2023/07/25 05:23:42;;;;;;;7.30;6.10;;;;;;;28.89;100.00;97723.75;106153;1260;59684;-78
2023/07/25 05:26:08;;;;;;;7.50;6.20;;;;;;;29.05;100.00;97729.65;105830;1259;59752;-78
2023/07/25 05:28:35;;;;;;;8.20;5.90;;;;;;;29.10;100.00;97724.34;105349;1261;59645;-78
2023/07/25 05:31:01;;;;;;;6.20;5.60;;;;;;;29.11;100.00;97722.92;105360;1260;59654;-78
2023/07/25 05:33:28;;;;;;;6.20;5.60;;;;;;;29.19;100.00;97714.20;105327;1262;59771;-77
2023/07/25 05:36:01;;;;;;;8.60;7.10;;;;;;;29.27;100.00;97705.48;105353;1261;59648;-79
2023/07/25 05:38:28;;;;;;;7.00;6.30;;;;;;;29.40;100.00;97703.83;105484;1260;59728;-78
2023/07/25 05:40:58;;;;;;;7.50;6.60;;;;;;;29.58;100.00;97707.78;105473;1257;66226;-78
2023/07/25 05:43:24;;;;;;;6.90;5.90;;;;;;;29.76;100.00;97713.66;105475;1258;59777;-78
2023/07/25 05:45:51;;;;;;;7.10;6.30;;;;;;;29.90;100.00;97725.08;105463;1260;59690;-78
2023/07/25 05:48:17;;;;;;;5.70;5.30;;;;;;;29.94;100.00;97725.83;105465;1260;59630;-78
2023/07/25 05:50:49;;;;;;;6.50;5.80;;;;;;;29.94;100.00;97725.34;105488;1259;59734;-78
2023/07/25 05:53:16;;;;;;;7.70;5.80;;;;;;;29.94;100.00;97726.65;105519;1260;63260;-77
2023/07/25 05:55:46;;;;;;;8.00;5.60;;;;;;;29.97;100.00;97725.64;105555;1260;59771;-77
2023/07/25 05:58:14;;;;;;;6.70;5.60;;;;;;;29.97;100.00;97726.80;105566;1258;62869;-78
2023/07/25 06:00:42;;;;;;;6.50;5.90;;;;;;;29.92;100.00;97726.36;105545;1258;59640;-77
2023/07/25 06:03:13;;;;;;;7.90;5.60;;;;;;;29.84;100.00;97724.08;105491;1260;59737;-78
2023/07/25 06:05:40;;;;;;;6.30;5.70;;;;;;;29.83;100.00;97725.23;105491;1257;64539;-79
2023/07/25 06:08:08;;;;;;;5.90;5.30;;;;;;;29.89;100.00;97724.67;105524;1258;60059;-78
2023/07/25 06:10:36;;;;;;;6.20;4.90;;;;;;;29.99;100.00;97724.95;105506;1260;64381;-78
2023/07/25 06:13:04;;;;;;;6.60;5.40;;;;;;;30.06;100.00;97726.17;105257;1259;59658;-78
2023/07/25 06:15:34;;;;;;;11.70;5.40;;;;;;;30.17;100.00;97721.16;105269;1258;59651;-78
2023/07/25 06:18:01;;;;;;;6.40;5.80;;;;;;;30.17;100.00;97731.45;105518;1261;65647;-78
2023/07/25 06:20:28;;;;;;;6.00;5.50;;;;;;;30.20;100.00;97737.98;105509;1260;59787;-78
2023/07/25 06:22:55;;;;;;;6.50;5.50;;;;;;;30.27;100.00;97744.81;105350;1260;64358;-78
2023/07/25 06:25:21;;;;;;;5.80;5.30;;;;;;;30.24;100.00;97747.59;105504;1257;59661;-78
2023/07/25 06:27:48;;;;;;;5.80;5.20;;;;;;;30.17;100.00;97754.80;105409;1257;59559;-78
2023/07/25 06:30:14;;;;;;;5.90;5.00;;;;;;;30.17;100.00;97758.44;105490;1258;59721;-78
2023/07/25 06:32:41;;;;;;;6.10;5.20;;;;;;;30.19;100.00;97749.05;105522;1257;59723;-78
2023/07/25 06:35:08;;;;;;;6.90;4.80;;;;;;;30.17;100.00;97739.41;105515;1267;64487;-79
2023/07/25 06:37:36;;;;;;;5.50;5.00;;;;;;;29.98;100.00;97737.90;105307;1259;59765;-78
2023/07/25 06:40:03;;;;;;;5.90;5.30;;;;;;;29.86;100.00;97744.70;105465;1260;59707;-78
2023/07/25 06:42:31;;;;;;;5.90;5.30;;;;;;;29.71;100.00;97735.73;105568;1260;65412;-78
2023/07/25 06:44:58;;;;;;;5.70;4.80;;;;;;;29.92;100.00;97732.39;105451;1260;60898;-77
2023/07/25 06:47:24;;;;;;;5.50;4.90;;;;;;;30.07;100.00;97729.08;105468;1261;63581;-78
2023/07/25 06:49:51;;;;;;;7.20;4.90;;;;;;;29.92;100.00;97729.22;105519;1261;59737;-78
2023/07/25 06:52:17;;;;;;;4.90;4.40;;;;;;;29.68;100.00;97735.09;105584;1260;59752;-80
2023/07/25 06:54:44;;;;;;;5.60;5.10;;;;;;;29.57;100.00;97736.91;105572;1260;64181;-79
2023/07/25 06:57:11;;;;;;;6.60;5.50;;;;;;;29.65;100.00;97738.46;105538;1260;70475;-79
2023/07/25 06:59:37;;;;;;;6.80;5.00;;;;;;;29.66;100.00;97734.02;105564;1260;64307;-78
2023/07/25 07:02:04;;;;;;;6.50;5.00;;;;;;;29.56;100.00;97723.94;105801;1257;59640;-79
2023/07/25 07:04:30;;;;;;;5.40;4.90;;;;;;;29.48;100.00;97715.12;105581;1257;59660;-79
2023/07/25 07:06:57;;;;;;;5.80;4.90;;;;;;;29.49;100.00;97715.09;105523;1260;65557;-79
2023/07/25 07:09:24;;;;;;;5.70;5.20;;;;;;;29.53;100.00;97711.71;105603;1259;60153;-79
2023/07/25 07:11:50;;;;;;;6.20;4.80;;;;;;;29.66;100.00;97716.50;105549;1256;59853;-78
2023/07/25 07:14:16;;;;;;;5.70;5.00;;;;;;;29.82;100.00;97712.30;105612;1254;59738;-79
2023/07/25 07:16:43;;;;;;;5.00;4.30;;;;;;;29.82;100.00;97706.03;105584;1254;59663;-79
2023/07/25 07:19:09;;;;;;;5.50;5.00;;;;;;;29.79;100.00;97702.67;105593;1258;59657;-79
2023/07/25 07:21:36;;;;;;;5.70;5.20;;;;;;;29.71;100.00;97702.91;105477;1259;60112;-79
2023/07/25 07:24:03;;;;;;;6.40;4.90;;;;;;;29.69;100.00;97705.25;105500;1258;64075;-78
2023/07/25 07:26:30;;;;;;;6.30;4.90;;;;;;;29.62;100.00;97705.91;105549;1260;59557;-77
2023/07/25 07:28:56;;;;;;;5.80;5.20;;;;;;;29.25;100.00;97700.71;105572;1260;59809;-77
2023/07/25 07:31:24;;;;;;;5.90;4.60;;;;;;;28.87;100.00;97687.90;105567;1258;59616;-78
2023/07/25 07:33:52;;;;;;;6.40;5.10;;;;;;;28.71;100.00;97671.88;105610;1260;60736;-78
2023/07/25 07:36:18;;;;;;;8.60;5.60;;;;;;;28.62;100.00;97662.32;105576;1259;64155;-78
2023/07/25 07:38:45;;;;;;;6.40;5.60;;;;;;;28.51;100.00;97659.80;105564;1258;59561;-78
2023/07/25 07:41:11;;;;;;;6.00;5.30;;;;;;;28.36;100.00;97666.77;105582;1260;59750;-78
2023/07/25 07:43:38;;;;;;;5.50;5.00;;;;;;;28.40;100.00;97675.11;105685;1257;63660;-78
2023/07/25 07:46:04;;;;;;;5.20;4.70;;;;;;;28.57;100.00;97684.21;105427;1261;60810;-78
2023/07/25 07:48:31;;;;;;;5.70;5.10;;;;;;;28.77;100.00;97690.05;105310;1260;59641;-78
2023/07/25 07:51:02;;;;;;;6.20;5.10;;;;;;;28.81;100.00;97695.48;105532;1261;59644;-78
2023/07/25 07:53:29;;;;;;;5.50;5.00;;;;;;;28.87;100.00;97702.05;105582;1260;59713;-78
2023/07/25 07:55:55;;;;;;;5.70;5.20;;;;;;;28.94;100.00;97711.69;105557;1255;59792;-78
2023/07/25 07:58:22;;;;;;;5.90;5.00;;;;;;;28.97;100.00;97714.80;105537;1254;59625;-79
2023/07/25 08:00:48;;;;;;;6.40;5.70;;;;;;;29.10;100.00;97709.58;105522;1257;59641;-78
2023/07/25 08:03:15;;;;;;;5.60;5.10;;;;;;;29.20;100.00;97706.77;105505;1257;59554;-78
2023/07/25 08:05:42;;;;;;;5.60;5.10;;;;;;;29.21;100.00;97700.95;105523;1260;59669;-76
2023/07/25 08:08:09;;;;;;;5.40;4.90;;;;;;;29.17;100.00;97696.13;105459;1254;64054;-77
2023/07/25 08:10:36;;;;;;;5.60;5.00;;;;;;;28.94;100.00;97693.60;105636;1254;59824;-77
2023/07/25 08:13:02;;;;;;;5.20;4.70;;;;;;;28.53;100.00;97691.39;105578;1255;60571;-77
2023/07/25 08:15:29;;;;;;;5.50;4.90;;;;;;;28.33;100.00;97679.33;105265;1262;60450;-78
2023/07/25 08:17:55;;;;;;;5.10;4.70;;;;;;;28.41;100.00;97672.30;105577;1258;60345;-78
2023/07/25 08:20:22;;;;;;;8.70;5.60;;;;;;;28.38;100.00;97670.30;105599;1257;60390;-77
2023/07/25 08:22:48;;;;;;;6.40;4.70;;;;;;;28.23;100.00;97672.82;105425;1260;60453;-77
2023/07/25 08:25:15;;;;;;;5.80;5.30;;;;;;;28.02;100.00;97682.69;105577;1257;60457;-77
2023/07/25 08:27:41;;;;;;;5.60;5.10;;;;;;;27.84;100.00;97684.84;105613;1257;60441;-78
2023/07/25 08:30:08;;;;;;;6.70;5.90;;;;;;;27.98;100.00;97685.02;105552;1257;60431;-78
2023/07/25 08:32:34;;;;;;;6.20;5.30;;;;;;;28.11;100.00;97683.13;105371;1260;60724;-78
2023/07/25 08:35:01;;;;;;;7.40;5.70;;;;;;;28.03;100.00;97685.02;105614;1257;60474;-78
2023/07/25 08:37:27;;;;;;;5.10;4.60;;;;;;;27.96;100.00;97676.25;105568;1254;60452;-78
2023/07/25 08:39:54;;;;;;;5.10;4.30;;;;;;;28.07;100.00;97676.42;105606;1254;60470;-78
2023/07/25 08:42:25;;;;;;;5.60;4.40;;;;;;;28.20;100.00;97677.91;105609;1254;60517;-78
2023/07/25 08:44:54;;;;;;;5.30;4.80;;;;;;;28.33;100.00;97673.63;105390;1255;64741;-78
2023/07/25 08:47:28;;;;;;;5.50;4.80;;;;;;;28.50;100.00;97672.67;105619;1254;67844;-78
2023/07/25 08:49:57;;;;;;;5.30;4.70;;;;;;;28.72;100.00;97665.09;105601;1257;63381;-77
2023/07/25 08:52:28;;;;;;;5.40;4.90;;;;;;;28.72;100.00;97661.42;105346;1257;60562;-78
2023/07/25 08:54:56;;;;;;;5.50;4.70;;;;;;;28.68;100.00;97665.63;105656;1257;60347;-78
2023/07/25 08:57:23;;;;;;;5.30;4.90;;;;;;;28.53;97.32;97673.27;105626;1255;66892;-78
2023/07/25 08:59:50;;;;;;;5.40;4.50;;;;;;;28.35;95.51;97671.84;105503;1257;68434;-78
2023/07/25 09:02:18;;;;;;;6.70;4.80;;;;;;;28.18;94.86;97667.89;105596;1254;63657;-78
2023/07/25 09:04:48;;;;;;;6.20;4.50;;;;;;;28.10;94.80;97663.12;105607;1258;60433;-78
2023/07/25 09:07:15;;;;;;;5.10;4.60;;;;;;;28.11;93.04;97664.98;105598;1255;60442;-79
2023/07/25 09:09:41;;;;;;;5.20;4.70;;;;;;;28.02;93.92;97664.77;105634;1258;64988;-78
2023/07/25 09:12:08;;;;;;;5.60;5.10;;;;;;;28.08;93.48;97658.73;105616;1255;60893;-78
2023/07/25 09:14:36;;;;;;;5.50;4.60;;;;;;;28.10;93.93;97648.16;105362;1254;72604;-77
2023/07/25 09:17:07;;;;;;;5.40;4.60;;;;;;;28.25;94.08;97638.77;105579;1256;60547;-77
2023/07/25 09:19:33;;;;;;;6.00;4.70;;;;;;;28.42;94.13;97634.02;105612;1254;60429;-79
2023/07/25 09:22:00;;;;;;;5.10;4.60;;;;;;;28.59;94.06;97632.02;105662;1257;60539;-78
2023/07/25 09:24:37;;;;;;;5.60;4.80;;;;;;;28.72;93.66;97629.67;105670;1257;60481;-78
2023/07/25 09:27:15;;;;;;;4.90;4.00;;;;;;;28.78;91.98;97628.16;105499;1259;65860;-77
2023/07/25 09:29:42;;;;;;;4.70;4.30;;;;;;;28.65;91.90;97633.80;105691;1254;60499;-77
2023/07/25 09:32:27;;;;;;;5.40;4.90;;;;;;;28.74;93.72;97640.44;105653;1254;60430;-78
2023/07/25 09:34:59;;;;;;;5.10;4.60;;;;;;;28.95;93.74;97643.68;105690;1258;64942;-78
2023/07/25 09:37:28;;;;;;;5.30;4.80;;;;;;;29.10;93.26;97651.96;105694;1254;60726;-78
2023/07/25 09:39:54;;;;;;;5.50;4.80;;;;;;;29.14;91.94;97665.47;105626;1258;62948;-78
2023/07/25 09:42:22;;;;;;;5.10;4.60;;;;;;;29.12;92.40;97666.54;105628;1254;60544;-79
2023/07/25 09:44:51;;;;;;;6.20;5.20;;;;;;;29.23;93.69;97662.67;105687;1257;60435;-79
2023/07/25 09:47:25;;;;;;;6.10;4.30;;;;;;;29.42;93.64;97657.07;105646;1257;65800;-78
2023/07/25 09:49:54;;;;;;;5.50;4.70;;;;;;;29.66;94.01;97658.89;105625;1256;67895;-79
2023/07/25 09:52:22;;;;;;;;;;;;;;;29.89;92.73;97652.94;105723;1254;64797;-80
2023/07/25 09:54:49;;;;;;;4.60;4.20;;;;;;;30.08;92.90;97653.71;105646;1257;60433;-78
2023/07/25 09:57:16;;;;;;;4.60;4.20;;;;;;;30.23;91.89;97647.74;105703;1254;60434;-80
2023/07/25 09:59:43;;;;;;;5.60;4.00;;;;;;;30.44;91.66;97639.17;105678;1257;66155;-79
2023/07/25 10:02:09;;;;;;;5.40;4.70;;;;;;;30.66;88.99;97631.56;105700;1257;60482;-78
2023/07/25 10:04:37;;;;;;;4.20;3.90;;;;;;;30.59;86.79;97628.60;105696;1258;63437;-78
2023/07/25 10:07:06;;;;;;;4.40;4.00;;;;;;;30.48;86.54;97633.61;105793;1257;60441;-77
2023/07/25 10:09:34;;;;;;;5.50;4.60;;;;;;;30.41;86.62;97637.45;105706;1253;60455;-78
2023/07/25 10:12:03;;;;;;;4.50;4.10;;;;;;;30.37;85.86;97633.80;105635;1255;64887;-77
2023/07/25 10:14:30;;;;;;;4.40;4.00;;;;;;;30.27;85.53;97629.71;105721;1253;60942;-78
2023/07/25 10:16:58;;;;;;;5.90;4.20;;;;;;;30.22;85.21;97624.06;105513;1253;63630;-78
2023/07/25 10:19:25;;;;;;;4.40;4.00;;;;;;;30.15;85.18;97624.09;105697;1254;60537;-77
2023/07/25 10:21:53;;;;;;;5.70;4.00;;;;;;;30.22;85.60;97623.39;105718;1256;60436;-78
2023/07/25 10:24:20;;;;;;;4.10;3.80;;;;;;;30.35;86.06;97613.33;105705;1256;65811;-78
2023/07/25 10:27:00;;;;;;;4.60;4.10;;;;;;;30.33;84.71;97603.09;105555;1253;60565;-77
2023/07/25 10:29:36;;;;;;;;;;;;;;;30.17;83.68;97600.36;105701;1257;62565;-81
2023/07/25 10:32:03;;;;;;;5.50;3.80;;;;;;;29.94;82.02;97610.13;105659;1253;60557;-79
2023/07/25 10:34:44;;;;;;;5.50;4.30;;;;;;;29.85;74.08;97604.60;105760;1257;60438;-79
2023/07/25 10:37:28;;;;;;;5.10;4.00;;;;;;;30.05;71.14;97601.27;105815;1257;65862;-76
2023/07/25 10:40:08;;;;;;;5.50;3.50;;;;;;;30.26;70.46;97593.25;105714;1257;60543;-77
2023/07/25 10:42:50;;;;;;;4.10;3.80;;;;;;;30.47;69.81;97591.02;105483;1260;64173;-77
2023/07/25 10:54:20;;;;;;;4.60;3.80;;;;;;;30.74;65.25;97570.84;102943;1292;601246;-77
2023/07/25 10:57:06;;;;;;;4.50;4.20;;;;;;;30.61;62.61;97567.09;104931;1267;59271;-77
2023/07/25 10:59:32;;;;;;;4.10;3.80;;;;;;;30.44;62.19;97558.63;104937;1268;59283;-78
2023/07/25 11:01:59;;;;;;;4.80;3.80;;;;;;;30.39;61.83;97552.10;105213;1263;63494;-78
2023/07/25 11:04:31;;;;;;;4.30;3.70;;;;;;;30.28;61.69;97552.31;105220;1263;59794;-79
2023/07/25 11:07:09;;;;;;;3.80;3.40;;;;;;;30.23;61.57;97553.97;104940;1266;159819;-78
2023/07/25 11:09:45;;;;;;;4.40;3.00;;;;;;;30.09;61.17;97561.89;105110;1266;59264;-78
2023/07/25 11:12:12;;;;;;;3.40;3.10;;;;;;;29.82;60.04;97565.02;105292;1259;59298;-78
2023/07/25 11:14:43;;;;;;;3.90;3.40;;;;;;;29.45;59.49;97562.04;105286;1262;63334;-78
2023/07/25 11:17:13;;;;;;;4.80;3.10;;;;;;;29.12;60.11;97560.30;105928;1253;59198;-77
2023/07/25 11:19:39;;;;;;;5.40;2.90;;;;;;;28.83;60.01;97563.07;105890;1256;63806;-77
2023/07/25 11:22:11;;;;;;;4.70;3.20;;;;;;;28.58;60.44;97561.65;105604;1254;59620;-78
2023/07/25 11:24:47;;;;;;;3.70;3.30;;;;;;;28.34;60.94;97554.89;105917;1256;59590;-78
2023/07/25 11:27:14;;;;;;;4.10;3.80;;;;;;;28.14;61.31;97549.39;105925;1250;63711;-78
2023/07/25 11:29:41;;;;;;;4.50;4.10;;;;;;;27.94;60.89;97549.41;105878;1254;59708;-78
2023/07/25 11:32:08;;;;;;;3.90;3.50;;;;;;;27.70;59.53;97549.77;105855;1257;73285;-78
2023/07/25 11:34:34;;;;;;;4.00;3.70;;;;;;;27.46;59.93;97549.17;105516;1257;59686;-78
2023/07/25 11:37:08;;;;;;;4.80;3.40;;;;;;;27.23;60.67;97555.50;105916;1254;59943;-78
2023/07/25 11:39:35;;;;;;;5.20;3.60;;;;;;;27.00;61.42;97556.45;105897;1256;63459;-77
2023/07/25 11:42:02;;;;;;;3.60;3.30;;;;;;;26.70;61.87;97558.36;105941;1255;60755;-78
2023/07/25 11:44:28;;;;;;;3.70;3.30;;;;;;;26.41;62.72;97556.85;105741;1253;63397;-78
2023/07/25 11:46:55;;;;;;;5.00;3.70;;;;;;;26.17;64.41;97552.42;105892;1256;59699;-77
2023/07/25 11:49:23;;;;;;;4.00;3.60;;;;;;;25.99;66.71;97553.50;105885;1255;59536;-77
2023/07/25 11:51:51;;;;;;;4.90;3.90;;;;;;;25.88;69.00;97548.99;105709;1259;64565;-77
2023/07/25 11:54:19;;;;;;;4.80;3.80;;;;;;;25.71;69.91;97547.54;105945;1250;60952;-78
2023/07/25 11:56:45;;;;;;;3.80;3.40;;;;;;;25.50;70.43;97548.16;105709;1256;63773;-77
2023/07/25 11:59:12;;;;;;;3.50;3.20;;;;;;;25.33;70.67;97544.98;105867;1250;59613;-77
2023/07/25 12:01:39;;;;;;;4.00;3.10;;;;;;;25.17;71.68;97540.41;105926;1251;59696;-77
2023/07/25 12:04:15;;;;;;;3.80;3.30;;;;;;;25.06;72.45;97534.73;105609;1250;65014;-78
2023/07/25 12:06:42;;;;;;;3.50;3.20;;;;;;;24.96;73.44;97531.39;105945;1250;59662;-76
2023/07/25 12:09:09;;;;;;;3.60;3.30;;;;;;;24.91;74.61;97533.77;105920;1254;64546;-78
2023/07/25 12:11:43;;;;;;;4.80;3.70;;;;;;;24.94;74.11;97530.57;105898;1250;59734;-77
2023/07/25 12:14:12;;;;;;;4.80;3.50;;;;;;;24.97;74.29;97528.09;105603;1257;59534;-79
2023/07/25 12:16:43;;;;;;;4.40;3.60;;;;;;;25.03;74.86;97529.40;105782;1256;64235;-79
2023/07/25 12:19:14;;;;;;;4.20;3.50;;;;;;;25.13;74.99;97533.54;105871;1256;60905;-78
2023/07/25 12:21:46;;;;;;;5.00;3.80;;;;;;;25.29;75.47;97529.60;105796;1253;63439;-77
2023/07/25 12:24:15;;;;;;;3.70;3.10;;;;;;;25.40;75.34;97527.30;105817;1256;60686;-77
2023/07/25 12:26:56;;;;;;;4.90;3.70;;;;;;;25.48;75.26;97530.82;105682;1257;59558;-79
2023/07/25 12:29:24;;;;;;;3.70;3.20;;;;;;;25.42;75.66;97536.78;105826;1254;65163;-78
2023/07/25 12:31:52;;;;;;;3.70;3.40;;;;;;;25.34;76.54;97541.48;105874;1253;59568;-79
2023/07/25 12:34:20;;;;;;;4.30;4.00;;;;;;;25.17;76.95;97546.25;105790;1256;63762;-78
2023/07/25 12:36:48;;;;;;;3.90;3.10;;;;;;;24.87;77.65;97547.15;105845;1251;59747;-76
2023/07/25 12:39:15;;;;;;;4.20;3.60;;;;;;;24.59;79.23;97552.15;105796;1256;59724;-78
2023/07/25 12:41:43;;;;;;;3.70;3.30;;;;;;;24.33;80.24;97553.08;105535;1258;64319;-78
2023/07/25 12:44:10;;;;;;;5.00;3.70;;;;;;;24.05;81.48;97550.10;105877;1251;59714;-77
2023/07/25 12:46:40;;;;;;;4.60;3.50;;;;;;;23.81;83.00;97546.55;105823;1256;62530;-77
2023/07/25 12:49:07;;;;;;;3.80;3.40;;;;;;;23.60;84.60;97552.30;105813;1251;59647;-79
2023/07/25 12:51:34;;;;;;;5.70;3.70;;;;;;;23.49;86.71;97554.89;105879;1256;59638;-77
2023/07/25 12:54:01;;;;;;;4.30;3.70;;;;;;;23.40;88.69;97557.11;105472;1261;62939;-77
2023/07/25 12:56:28;;;;;;;3.50;3.10;;;;;;;23.30;90.45;97556.38;105894;1257;59653;-79
2023/07/25 12:58:55;;;;;;;5.10;4.00;;;;;;;23.20;92.02;97557.27;105829;1256;60863;-78
2023/07/25 13:01:21;;;;;;;6.30;3.60;;;;;;;23.03;94.84;97560.08;105862;1255;59721;-77
2023/07/25 13:03:48;;;;;;;6.90;3.40;;;;;;;22.74;97.30;97559.32;105841;1251;59612;-77
2023/07/25 13:06:15;;;;;;;4.20;3.40;;;;;;;22.50;99.56;97554.27;105833;1256;62981;-78
2023/07/25 13:08:41;;;;;;;5.50;3.40;;;;;;;22.24;100.00;97551.74;105849;1255;59724;-77
